sensor_id;sensor_type;location;lat;lon;timestamp;P1;durP1;ratioP1;P2;durP2;ratioP2
6017;SDS011;3037;51.068;13.780;2023-03-14T00:00:20;3.83;;;1.50;;
6017;SDS011;3037;51.068;13.780;2023-03-14T00:02:46;2.13;;;2.03;;
6017;SDS011;3037;51.068;13.780;2023-03-14T00:05:19;1.60;;;1.50;;
6017;SDS011;3037;51.068;13.780;2023-03-14T00:07:45;2.27;;;2.17;;
6017;SDS011;3037;51.068;13.780;2023-03-14T00:10:12;3.03;;;2.20;;
6017;SDS011;3037;51.068;13.780;2023-03-14T00:12:39;1.50;;;1.50;;
6017;SDS011;3037;51.068;13.780;2023-03-14T00:15:05;6.20;;;2.13;;
6017;SDS011;3037;51.068;13.780;2023-03-14T00:17:32;1.90;;;1.80;;
6017;SDS011;3037;51.068;13.780;2023-03-14T00:19:58;3.60;;;1.80;;
6017;SDS011;3037;51.068;13.780;2023-03-14T00:22:29;1.83;;;1.83;;
6017;SDS011;3037;51.068;13.780;2023-03-14T00:24:56;1.60;;;1.60;;
6017;SDS011;3037;51.068;13.780;2023-03-14T00:27:21;2.10;;;2.00;;
6017;SDS011;3037;51.068;13.780;2023-03-14T00:29:47;1.90;;;1.80;;
6017;SDS011;3037;51.068;13.780;2023-03-14T00:32:12;1.43;;;1.43;;
6017;SDS011;3037;51.068;13.780;2023-03-14T00:34:38;3.00;;;1.60;;
6017;SDS011;3037;51.068;13.780;2023-03-14T00:37:04;1.80;;;1.70;;
6017;SDS011;3037;51.068;13.780;2023-03-14T00:39:30;3.40;;;1.90;;
6017;SDS011;3037;51.068;13.780;2023-03-14T00:41:55;2.40;;;2.40;;
6017;SDS011;3037;51.068;13.780;2023-03-14T00:44:21;4.23;;;2.47;;
6017;SDS011;3037;51.068;13.780;2023-03-14T00:46:46;3.40;;;3.13;;
6017;SDS011;3037;51.068;13.780;2023-03-14T00:49:12;2.83;;;2.63;;
6017;SDS011;3037;51.068;13.780;2023-03-14T00:51:37;3.03;;;2.70;;
6017;SDS011;3037;51.068;13.780;2023-03-14T00:54:03;2.60;;;2.40;;
6017;SDS011;3037;51.068;13.780;2023-03-14T00:56:28;4.23;;;2.50;;
6017;SDS011;3037;51.068;13.780;2023-03-14T00:58:54;3.80;;;3.40;;
6017;SDS011;3037;51.068;13.780;2023-03-14T01:01:21;3.10;;;2.90;;
6017;SDS011;3037;51.068;13.780;2023-03-14T01:03:47;2.70;;;2.60;;
6017;SDS011;3037;51.068;13.780;2023-03-14T01:06:16;3.23;;;2.97;;
6017;SDS011;3037;51.068;13.780;2023-03-14T01:08:44;3.10;;;3.00;;
6017;SDS011;3037;51.068;13.780;2023-03-14T01:11:12;2.27;;;2.20;;
6017;SDS011;3037;51.068;13.780;2023-03-14T01:13:39;2.20;;;2.10;;
6017;SDS011;3037;51.068;13.780;2023-03-14T01:16:06;2.73;;;2.63;;
6017;SDS011;3037;51.068;13.780;2023-03-14T01:18:34;3.10;;;2.80;;
6017;SDS011;3037;51.068;13.780;2023-03-14T01:21:00;3.20;;;3.00;;
6017;SDS011;3037;51.068;13.780;2023-03-14T01:23:27;3.03;;;2.83;;
6017;SDS011;3037;51.068;13.780;2023-03-14T01:25:53;3.47;;;3.17;;
6017;SDS011;3037;51.068;13.780;2023-03-14T01:28:18;3.20;;;2.90;;
6017;SDS011;3037;51.068;13.780;2023-03-14T01:30:44;3.10;;;2.90;;
6017;SDS011;3037;51.068;13.780;2023-03-14T01:33:09;3.00;;;2.90;;
6017;SDS011;3037;51.068;13.780;2023-03-14T01:35:36;3.80;;;3.50;;
6017;SDS011;3037;51.068;13.780;2023-03-14T01:38:01;9.00;;;3.17;;
6017;SDS011;3037;51.068;13.780;2023-03-14T01:40:27;4.70;;;3.10;;
6017;SDS011;3037;51.068;13.780;2023-03-14T01:42:56;3.07;;;2.97;;
6017;SDS011;3037;51.068;13.780;2023-03-14T01:48:26;4.23;;;3.93;;
6017;SDS011;3037;51.068;13.780;2023-03-14T01:50:56;3.67;;;3.47;;
6017;SDS011;3037;51.068;13.780;2023-03-14T01:53:22;3.93;;;3.63;;
6017;SDS011;3037;51.068;13.780;2023-03-14T01:55:48;3.37;;;3.17;;
6017;SDS011;3037;51.068;13.780;2023-03-14T01:58:14;5.00;;;3.40;;
6017;SDS011;3037;51.068;13.780;2023-03-14T02:00:41;5.40;;;4.47;;
6017;SDS011;3037;51.068;13.780;2023-03-14T02:03:10;4.03;;;3.83;;
6017;SDS011;3037;51.068;13.780;2023-03-14T02:05:40;3.67;;;3.43;;
6017;SDS011;3037;51.068;13.780;2023-03-14T02:08:08;3.30;;;3.10;;
6017;SDS011;3037;51.068;13.780;2023-03-14T02:10:39;4.10;;;3.90;;
6017;SDS011;3037;51.068;13.780;2023-03-14T02:13:07;3.40;;;3.20;;
6017;SDS011;3037;51.068;13.780;2023-03-14T02:15:33;3.20;;;3.00;;
6017;SDS011;3037;51.068;13.780;2023-03-14T02:17:59;3.90;;;3.70;;
6017;SDS011;3037;51.068;13.780;2023-03-14T02:22:57;3.83;;;3.63;;
6017;SDS011;3037;51.068;13.780;2023-03-14T02:25:26;3.70;;;3.50;;
6017;SDS011;3037;51.068;13.780;2023-03-14T02:27:54;3.30;;;3.10;;
6017;SDS011;3037;51.068;13.780;2023-03-14T02:30:20;3.27;;;3.10;;
6017;SDS011;3037;51.068;13.780;2023-03-14T02:32:52;3.23;;;3.13;;
6017;SDS011;3037;51.068;13.780;2023-03-14T02:35:23;3.37;;;3.17;;
6017;SDS011;3037;51.068;13.780;2023-03-14T02:37:52;7.53;;;3.03;;
6017;SDS011;3037;51.068;13.780;2023-03-14T02:40:25;3.60;;;3.13;;
6017;SDS011;3037;51.068;13.780;2023-03-14T02:42:51;2.90;;;2.80;;
6017;SDS011;3037;51.068;13.780;2023-03-14T02:47:43;2.73;;;2.63;;
6017;SDS011;3037;51.068;13.780;2023-03-14T02:50:13;2.67;;;2.57;;
6017;SDS011;3037;51.068;13.780;2023-03-14T02:52:42;2.03;;;1.93;;
6017;SDS011;3037;51.068;13.780;2023-03-14T02:55:07;2.13;;;2.03;;
6017;SDS011;3037;51.068;13.780;2023-03-14T02:57:33;2.50;;;2.27;;
6017;SDS011;3037;51.068;13.780;2023-03-14T02:59:59;2.40;;;2.30;;
6017;SDS011;3037;51.068;13.780;2023-03-14T03:02:26;2.10;;;1.90;;
6017;SDS011;3037;51.068;13.780;2023-03-14T03:04:52;2.17;;;1.97;;
6017;SDS011;3037;51.068;13.780;2023-03-14T03:07:18;2.33;;;2.23;;
6017;SDS011;3037;51.068;13.780;2023-03-14T03:09:44;2.60;;;1.47;;
6017;SDS011;3037;51.068;13.780;2023-03-14T03:12:09;1.60;;;1.60;;
6017;SDS011;3037;51.068;13.780;2023-03-14T03:14:35;1.30;;;1.30;;
6017;SDS011;3037;51.068;13.780;2023-03-14T03:17:02;1.63;;;1.63;;
6017;SDS011;3037;51.068;13.780;2023-03-14T03:19:28;1.30;;;1.30;;
6017;SDS011;3037;51.068;13.780;2023-03-14T03:21:53;0.70;;;0.70;;
6017;SDS011;3037;51.068;13.780;2023-03-14T03:24:19;1.40;;;1.17;;
6017;SDS011;3037;51.068;13.780;2023-03-14T03:26:44;0.70;;;0.70;;
6017;SDS011;3037;51.068;13.780;2023-03-14T03:29:10;1.33;;;1.00;;
6017;SDS011;3037;51.068;13.780;2023-03-14T03:31:38;1.00;;;1.00;;
6017;SDS011;3037;51.068;13.780;2023-03-14T03:34:04;0.60;;;0.60;;
6017;SDS011;3037;51.068;13.780;2023-03-14T03:36:30;1.13;;;1.00;;
6017;SDS011;3037;51.068;13.780;2023-03-14T03:38:55;1.13;;;1.13;;
6017;SDS011;3037;51.068;13.780;2023-03-14T03:41:20;1.20;;;1.20;;
6017;SDS011;3037;51.068;13.780;2023-03-14T03:43:46;2.10;;;0.80;;
6017;SDS011;3037;51.068;13.780;2023-03-14T03:46:12;1.10;;;1.00;;
6017;SDS011;3037;51.068;13.780;2023-03-14T03:48:37;1.30;;;1.30;;
6017;SDS011;3037;51.068;13.780;2023-03-14T03:51:03;0.93;;;0.70;;
6017;SDS011;3037;51.068;13.780;2023-03-14T03:53:29;1.33;;;1.00;;
6017;SDS011;3037;51.068;13.780;2023-03-14T03:55:54;1.17;;;0.97;;
6017;SDS011;3037;51.068;13.780;2023-03-14T03:58:20;0.87;;;0.87;;
6017;SDS011;3037;51.068;13.780;2023-03-14T04:00:45;0.70;;;0.70;;
6017;SDS011;3037;51.068;13.780;2023-03-14T04:03:11;0.80;;;0.80;;
6017;SDS011;3037;51.068;13.780;2023-03-14T04:05:36;1.80;;;0.67;;
6017;SDS011;3037;51.068;13.780;2023-03-14T04:08:02;0.70;;;0.70;;
6017;SDS011;3037;51.068;13.780;2023-03-14T04:10:28;0.80;;;0.80;;
6017;SDS011;3037;51.068;13.780;2023-03-14T04:12:54;2.47;;;0.90;;
6017;SDS011;3037;51.068;13.780;2023-03-14T04:15:19;2.10;;;0.90;;
6017;SDS011;3037;51.068;13.780;2023-03-14T04:17:45;0.77;;;0.73;;
6017;SDS011;3037;51.068;13.780;2023-03-14T04:20:10;3.87;;;0.70;;
6017;SDS011;3037;51.068;13.780;2023-03-14T04:22:37;1.97;;;0.60;;
6017;SDS011;3037;51.068;13.780;2023-03-14T04:25:03;0.93;;;0.70;;
6017;SDS011;3037;51.068;13.780;2023-03-14T04:27:29;0.70;;;0.70;;
6017;SDS011;3037;51.068;13.780;2023-03-14T04:29:54;0.60;;;0.60;;
6017;SDS011;3037;51.068;13.780;2023-03-14T04:32:20;0.87;;;0.87;;
6017;SDS011;3037;51.068;13.780;2023-03-14T04:34:46;6.70;;;0.97;;
6017;SDS011;3037;51.068;13.780;2023-03-14T04:37:11;0.50;;;0.50;;
6017;SDS011;3037;51.068;13.780;2023-03-14T04:39:37;4.97;;;1.03;;
6017;SDS011;3037;51.068;13.780;2023-03-14T04:42:03;0.90;;;0.90;;
6017;SDS011;3037;51.068;13.780;2023-03-14T04:44:29;0.80;;;0.80;;
6017;SDS011;3037;51.068;13.780;2023-03-14T04:46:54;3.77;;;0.80;;
6017;SDS011;3037;51.068;13.780;2023-03-14T04:49:20;1.10;;;0.80;;
6017;SDS011;3037;51.068;13.780;2023-03-14T04:51:45;17.47;;;1.13;;
6017;SDS011;3037;51.068;13.780;2023-03-14T04:54:11;4.30;;;0.80;;
6017;SDS011;3037;51.068;13.780;2023-03-14T04:56:36;1.00;;;0.90;;
6017;SDS011;3037;51.068;13.780;2023-03-14T04:59:02;1.50;;;0.87;;
6017;SDS011;3037;51.068;13.780;2023-03-14T05:01:28;1.23;;;0.90;;
6017;SDS011;3037;51.068;13.780;2023-03-14T05:03:54;1.43;;;1.00;;
6017;SDS011;3037;51.068;13.780;2023-03-14T05:06:19;1.03;;;0.93;;
6017;SDS011;3037;51.068;13.780;2023-03-14T05:08:45;1.20;;;0.90;;
6017;SDS011;3037;51.068;13.780;2023-03-14T05:11:10;0.83;;;0.70;;
6017;SDS011;3037;51.068;13.780;2023-03-14T05:13:37;0.70;;;0.70;;
6017;SDS011;3037;51.068;13.780;2023-03-14T05:16:04;2.80;;;0.90;;
6017;SDS011;3037;51.068;13.780;2023-03-14T05:18:31;1.37;;;0.67;;
6017;SDS011;3037;51.068;13.780;2023-03-14T05:20:57;1.20;;;1.10;;
6017;SDS011;3037;51.068;13.780;2023-03-14T05:23:23;1.43;;;0.70;;
6017;SDS011;3037;51.068;13.780;2023-03-14T05:25:48;1.37;;;1.20;;
6017;SDS011;3037;51.068;13.780;2023-03-14T05:28:13;1.20;;;1.10;;
6017;SDS011;3037;51.068;13.780;2023-03-14T05:30:39;2.93;;;0.90;;
6017;SDS011;3037;51.068;13.780;2023-03-14T05:33:04;1.70;;;1.00;;
6017;SDS011;3037;51.068;13.780;2023-03-14T05:35:30;3.93;;;1.10;;
6017;SDS011;3037;51.068;13.780;2023-03-14T05:37:56;1.30;;;0.80;;
6017;SDS011;3037;51.068;13.780;2023-03-14T05:40:21;9.77;;;1.10;;
6017;SDS011;3037;51.068;13.780;2023-03-14T05:42:47;1.20;;;1.10;;
6017;SDS011;3037;51.068;13.780;2023-03-14T05:45:12;1.27;;;0.93;;
6017;SDS011;3037;51.068;13.780;2023-03-14T05:47:38;5.10;;;1.00;;
6017;SDS011;3037;51.068;13.780;2023-03-14T05:50:03;6.77;;;1.10;;
6017;SDS011;3037;51.068;13.780;2023-03-14T05:52:29;2.53;;;0.97;;
6017;SDS011;3037;51.068;13.780;2023-03-14T05:54:55;2.63;;;1.03;;
6017;SDS011;3037;51.068;13.780;2023-03-14T05:57:20;1.47;;;1.20;;
6017;SDS011;3037;51.068;13.780;2023-03-14T05:59:46;1.23;;;0.97;;
6017;SDS011;3037;51.068;13.780;2023-03-14T06:02:11;0.67;;;0.67;;
6017;SDS011;3037;51.068;13.780;2023-03-14T06:04:37;10.17;;;1.50;;
6017;SDS011;3037;51.068;13.780;2023-03-14T06:07:02;2.13;;;1.33;;
6017;SDS011;3037;51.068;13.780;2023-03-14T06:09:28;2.60;;;1.30;;
6017;SDS011;3037;51.068;13.780;2023-03-14T06:11:53;4.00;;;0.93;;
6017;SDS011;3037;51.068;13.780;2023-03-14T06:14:19;6.50;;;1.30;;
6017;SDS011;3037;51.068;13.780;2023-03-14T06:16:44;3.37;;;1.53;;
6017;SDS011;3037;51.068;13.780;2023-03-14T06:19:10;5.60;;;1.30;;
6017;SDS011;3037;51.068;13.780;2023-03-14T06:21:36;2.93;;;1.60;;
6017;SDS011;3037;51.068;13.780;2023-03-14T06:24:02;3.10;;;1.17;;
6017;SDS011;3037;51.068;13.780;2023-03-14T06:26:28;4.50;;;1.50;;
6017;SDS011;3037;51.068;13.780;2023-03-14T06:28:54;5.53;;;1.33;;
6017;SDS011;3037;51.068;13.780;2023-03-14T06:31:19;2.93;;;1.27;;
6017;SDS011;3037;51.068;13.780;2023-03-14T06:33:45;1.00;;;0.97;;
6017;SDS011;3037;51.068;13.780;2023-03-14T06:36:10;2.73;;;1.30;;
6017;SDS011;3037;51.068;13.780;2023-03-14T06:38:36;3.80;;;1.43;;
6017;SDS011;3037;51.068;13.780;2023-03-14T06:41:05;5.60;;;1.17;;
6017;SDS011;3037;51.068;13.780;2023-03-14T06:43:32;1.50;;;1.13;;
6017;SDS011;3037;51.068;13.780;2023-03-14T06:45:57;4.47;;;1.50;;
6017;SDS011;3037;51.068;13.780;2023-03-14T06:48:23;2.70;;;1.37;;
6017;SDS011;3037;51.068;13.780;2023-03-14T06:50:48;4.53;;;1.43;;
6017;SDS011;3037;51.068;13.780;2023-03-14T06:53:14;6.60;;;1.50;;
6017;SDS011;3037;51.068;13.780;2023-03-14T06:55:40;1.30;;;1.13;;
6017;SDS011;3037;51.068;13.780;2023-03-14T06:58:05;3.53;;;1.40;;
6017;SDS011;3037;51.068;13.780;2023-03-14T07:00:32;4.27;;;1.57;;
6017;SDS011;3037;51.068;13.780;2023-03-14T07:02:58;3.60;;;1.47;;
6017;SDS011;3037;51.068;13.780;2023-03-14T07:05:24;2.60;;;1.80;;
6017;SDS011;3037;51.068;13.780;2023-03-14T07:07:49;8.47;;;1.73;;
6017;SDS011;3037;51.068;13.780;2023-03-14T07:10:15;7.33;;;1.90;;
6017;SDS011;3037;51.068;13.780;2023-03-14T07:12:41;3.50;;;1.30;;
6017;SDS011;3037;51.068;13.780;2023-03-14T07:15:06;2.77;;;1.20;;
6017;SDS011;3037;51.068;13.780;2023-03-14T07:17:32;4.37;;;1.63;;
6017;SDS011;3037;51.068;13.780;2023-03-14T07:19:58;7.23;;;1.30;;
6017;SDS011;3037;51.068;13.780;2023-03-14T07:22:24;1.43;;;1.27;;
6017;SDS011;3037;51.068;13.780;2023-03-14T07:24:49;9.40;;;1.33;;
6017;SDS011;3037;51.068;13.780;2023-03-14T07:27:15;7.80;;;1.77;;
6017;SDS011;3037;51.068;13.780;2023-03-14T07:29:40;3.63;;;1.43;;
6017;SDS011;3037;51.068;13.780;2023-03-14T07:32:06;6.00;;;1.40;;
6017;SDS011;3037;51.068;13.780;2023-03-14T07:34:32;3.27;;;1.67;;
6017;SDS011;3037;51.068;13.780;2023-03-14T07:36:58;3.07;;;1.63;;
6017;SDS011;3037;51.068;13.780;2023-03-14T07:39:24;2.90;;;1.10;;
6017;SDS011;3037;51.068;13.780;2023-03-14T07:41:49;5.50;;;1.67;;
6017;SDS011;3037;51.068;13.780;2023-03-14T07:44:15;1.70;;;1.33;;
6017;SDS011;3037;51.068;13.780;2023-03-14T07:46:41;7.00;;;1.47;;
6017;SDS011;3037;51.068;13.780;2023-03-14T07:49:06;4.43;;;1.60;;
6017;SDS011;3037;51.068;13.780;2023-03-14T07:51:32;3.10;;;1.77;;
6017;SDS011;3037;51.068;13.780;2023-03-14T07:53:57;4.67;;;1.93;;
6017;SDS011;3037;51.068;13.780;2023-03-14T07:56:23;7.87;;;1.70;;
6017;SDS011;3037;51.068;13.780;2023-03-14T07:58:48;14.47;;;2.07;;
6017;SDS011;3037;51.068;13.780;2023-03-14T08:01:14;5.83;;;2.00;;
6017;SDS011;3037;51.068;13.780;2023-03-14T08:03:40;3.80;;;1.43;;
6017;SDS011;3037;51.068;13.780;2023-03-14T08:06:05;8.33;;;1.77;;
6017;SDS011;3037;51.068;13.780;2023-03-14T08:08:31;2.50;;;1.63;;
6017;SDS011;3037;51.068;13.780;2023-03-14T08:11:01;5.93;;;1.57;;
6017;SDS011;3037;51.068;13.780;2023-03-14T08:13:30;5.17;;;1.67;;
6017;SDS011;3037;51.068;13.780;2023-03-14T08:15:56;3.00;;;1.70;;
6017;SDS011;3037;51.068;13.780;2023-03-14T08:18:21;2.53;;;1.13;;
6017;SDS011;3037;51.068;13.780;2023-03-14T08:20:47;2.80;;;1.10;;
6017;SDS011;3037;51.068;13.780;2023-03-14T08:23:12;3.10;;;1.40;;
6017;SDS011;3037;51.068;13.780;2023-03-14T08:25:38;2.80;;;1.17;;
6017;SDS011;3037;51.068;13.780;2023-03-14T08:28:04;3.87;;;1.17;;
6017;SDS011;3037;51.068;13.780;2023-03-14T08:30:29;1.30;;;1.20;;
6017;SDS011;3037;51.068;13.780;2023-03-14T08:32:58;1.80;;;0.93;;
6017;SDS011;3037;51.068;13.780;2023-03-14T08:35:24;3.33;;;0.93;;
6017;SDS011;3037;51.068;13.780;2023-03-14T08:37:51;1.07;;;1.03;;
6017;SDS011;3037;51.068;13.780;2023-03-14T08:40:17;3.93;;;1.40;;
6017;SDS011;3037;51.068;13.780;2023-03-14T08:42:43;1.43;;;1.10;;
6017;SDS011;3037;51.068;13.780;2023-03-14T08:45:14;1.63;;;1.53;;
6017;SDS011;3037;51.068;13.780;2023-03-14T08:47:41;2.50;;;1.00;;
6017;SDS011;3037;51.068;13.780;2023-03-14T08:50:07;7.53;;;2.00;;
6017;SDS011;3037;51.068;13.780;2023-03-14T08:52:34;3.40;;;1.00;;
6017;SDS011;3037;51.068;13.780;2023-03-14T08:55:00;1.07;;;0.97;;
6017;SDS011;3037;51.068;13.780;2023-03-14T08:57:26;2.30;;;1.00;;
6017;SDS011;3037;51.068;13.780;2023-03-14T08:59:55;4.50;;;1.20;;
6017;SDS011;3037;51.068;13.780;2023-03-14T09:02:22;3.77;;;1.20;;
6017;SDS011;3037;51.068;13.780;2023-03-14T09:04:49;2.10;;;1.17;;
6017;SDS011;3037;51.068;13.780;2023-03-14T09:07:16;2.73;;;0.97;;
6017;SDS011;3037;51.068;13.780;2023-03-14T09:09:41;1.17;;;1.10;;
6017;SDS011;3037;51.068;13.780;2023-03-14T09:12:07;4.70;;;1.33;;
6017;SDS011;3037;51.068;13.780;2023-03-14T09:14:32;2.57;;;0.93;;
6017;SDS011;3037;51.068;13.780;2023-03-14T09:16:58;1.27;;;1.00;;
6017;SDS011;3037;51.068;13.780;2023-03-14T09:19:23;1.03;;;0.70;;
6017;SDS011;3037;51.068;13.780;2023-03-14T09:21:49;1.63;;;1.00;;
6017;SDS011;3037;51.068;13.780;2023-03-14T09:24:14;4.23;;;0.70;;
6017;SDS011;3037;51.068;13.780;2023-03-14T09:26:40;1.60;;;1.07;;
6017;SDS011;3037;51.068;13.780;2023-03-14T09:29:06;1.80;;;1.03;;
6017;SDS011;3037;51.068;13.780;2023-03-14T09:31:31;2.97;;;0.93;;
6017;SDS011;3037;51.068;13.780;2023-03-14T09:33:57;4.33;;;1.00;;
6017;SDS011;3037;51.068;13.780;2023-03-14T09:36:22;1.70;;;1.20;;
6017;SDS011;3037;51.068;13.780;2023-03-14T09:38:48;5.27;;;1.60;;
6017;SDS011;3037;51.068;13.780;2023-03-14T09:41:29;3.40;;;1.10;;
6017;SDS011;3037;51.068;13.780;2023-03-14T09:44:02;1.13;;;1.03;;
6017;SDS011;3037;51.068;13.780;2023-03-14T09:46:36;3.43;;;1.00;;
6017;SDS011;3037;51.068;13.780;2023-03-14T09:49:08;1.30;;;0.80;;
6017;SDS011;3037;51.068;13.780;2023-03-14T09:51:55;4.53;;;0.80;;
6017;SDS011;3037;51.068;13.780;2023-03-14T09:54:26;10.13;;;1.73;;
6017;SDS011;3037;51.068;13.780;2023-03-14T09:56:57;0.90;;;0.90;;
6017;SDS011;3037;51.068;13.780;2023-03-14T09:59:22;2.10;;;0.80;;
6017;SDS011;3037;51.068;13.780;2023-03-14T10:01:48;1.23;;;0.77;;
6017;SDS011;3037;51.068;13.780;2023-03-14T10:04:15;3.73;;;1.30;;
6017;SDS011;3037;51.068;13.780;2023-03-14T10:06:45;2.83;;;1.10;;
6017;SDS011;3037;51.068;13.780;2023-03-14T10:09:17;5.40;;;2.77;;
6017;SDS011;3037;51.068;13.780;2023-03-14T10:11:51;1.60;;;0.93;;
6017;SDS011;3037;51.068;13.780;2023-03-14T10:14:28;0.97;;;0.97;;
6017;SDS011;3037;51.068;13.780;2023-03-14T10:16:55;3.93;;;1.07;;
6017;SDS011;3037;51.068;13.780;2023-03-14T10:19:34;4.63;;;1.10;;
6017;SDS011;3037;51.068;13.780;2023-03-14T10:22:01;2.00;;;1.00;;
6017;SDS011;3037;51.068;13.780;2023-03-14T10:24:30;6.80;;;0.80;;
6017;SDS011;3037;51.068;13.780;2023-03-14T10:26:59;1.13;;;0.90;;
6017;SDS011;3037;51.068;13.780;2023-03-14T10:29:27;1.63;;;1.30;;
6017;SDS011;3037;51.068;13.780;2023-03-14T10:32:02;10.93;;;1.40;;
6017;SDS011;3037;51.068;13.780;2023-03-14T10:34:34;0.80;;;0.70;;
6017;SDS011;3037;51.068;13.780;2023-03-14T10:37:22;2.87;;;1.13;;
6017;SDS011;3037;51.068;13.780;2023-03-14T10:39:55;3.27;;;0.73;;
6017;SDS011;3037;51.068;13.780;2023-03-14T10:42:30;1.20;;;1.20;;
6017;SDS011;3037;51.068;13.780;2023-03-14T10:45:03;3.20;;;1.27;;
6017;SDS011;3037;51.068;13.780;2023-03-14T10:47:33;1.27;;;0.83;;
6017;SDS011;3037;51.068;13.780;2023-03-14T10:50:23;5.50;;;1.40;;
6017;SDS011;3037;51.068;13.780;2023-03-14T10:52:55;1.37;;;0.60;;
6017;SDS011;3037;51.068;13.780;2023-03-14T10:55:22;1.87;;;1.03;;
6017;SDS011;3037;51.068;13.780;2023-03-14T10:57:50;2.80;;;0.87;;
6017;SDS011;3037;51.068;13.780;2023-03-14T11:00:20;2.00;;;0.80;;
6017;SDS011;3037;51.068;13.780;2023-03-14T11:02:59;1.23;;;0.80;;
6017;SDS011;3037;51.068;13.780;2023-03-14T11:05:59;1.20;;;1.10;;
6017;SDS011;3037;51.068;13.780;2023-03-14T11:08:43;0.90;;;0.90;;
6017;SDS011;3037;51.068;13.780;2023-03-14T11:11:22;2.87;;;0.73;;
6017;SDS011;3037;51.068;13.780;2023-03-14T11:16:38;2.63;;;0.93;;
6017;SDS011;3037;51.068;13.780;2023-03-14T11:25:31;2.20;;;0.80;;
6017;SDS011;3037;51.068;13.780;2023-03-14T11:28:18;0.93;;;0.90;;
6017;SDS011;3037;51.068;13.780;2023-03-14T11:31:13;2.17;;;0.73;;
6017;SDS011;3037;51.068;13.780;2023-03-14T11:39:26;2.50;;;2.30;;
6017;SDS011;3037;51.068;13.780;2023-03-14T11:42:02;1.20;;;1.10;;
6017;SDS011;3037;51.068;13.780;2023-03-14T11:44:36;1.60;;;0.90;;
6017;SDS011;3037;51.068;13.780;2023-03-14T11:49:43;6.30;;;1.90;;
6017;SDS011;3037;51.068;13.780;2023-03-14T11:52:23;1.30;;;0.80;;
6017;SDS011;3037;51.068;13.780;2023-03-14T11:57:20;1.47;;;0.57;;
6017;SDS011;3037;51.068;13.780;2023-03-14T12:02:16;4.40;;;1.80;;
6017;SDS011;3037;51.068;13.780;2023-03-14T12:10:29;1.03;;;0.60;;
6017;SDS011;3037;51.068;13.780;2023-03-14T12:13:01;1.17;;;1.17;;
6017;SDS011;3037;51.068;13.780;2023-03-14T12:15:27;2.80;;;2.30;;
6017;SDS011;3037;51.068;13.780;2023-03-14T12:17:56;2.10;;;1.90;;
6017;SDS011;3037;51.068;13.780;2023-03-14T12:20:22;1.77;;;1.63;;
6017;SDS011;3037;51.068;13.780;2023-03-14T12:22:50;2.37;;;1.00;;
6017;SDS011;3037;51.068;13.780;2023-03-14T12:25:19;1.90;;;0.90;;
6017;SDS011;3037;51.068;13.780;2023-03-14T12:35:52;2.03;;;1.37;;
6017;SDS011;3037;51.068;13.780;2023-03-14T12:43:47;0.90;;;0.80;;
6017;SDS011;3037;51.068;13.780;2023-03-14T12:46:20;2.70;;;1.43;;
6017;SDS011;3037;51.068;13.780;2023-03-14T12:48:50;1.23;;;1.00;;
6017;SDS011;3037;51.068;13.780;2023-03-14T12:51:34;2.07;;;1.07;;
6017;SDS011;3037;51.068;13.780;2023-03-14T12:57:06;2.20;;;0.83;;
6017;SDS011;3037;51.068;13.780;2023-03-14T12:59:47;1.70;;;1.00;;
6017;SDS011;3037;51.068;13.780;2023-03-14T13:02:24;0.70;;;0.70;;
6017;SDS011;3037;51.068;13.780;2023-03-14T13:05:00;1.17;;;0.70;;
6017;SDS011;3037;51.068;13.780;2023-03-14T13:07:31;0.80;;;0.80;;
6017;SDS011;3037;51.068;13.780;2023-03-14T13:10:21;0.70;;;0.70;;
6017;SDS011;3037;51.068;13.780;2023-03-14T13:12:52;4.23;;;0.70;;
6017;SDS011;3037;51.068;13.780;2023-03-14T13:15:28;0.90;;;0.70;;
6017;SDS011;3037;51.068;13.780;2023-03-14T13:18:08;2.47;;;0.80;;
6017;SDS011;3037;51.068;13.780;2023-03-14T13:21:03;6.50;;;0.60;;
6017;SDS011;3037;51.068;13.780;2023-03-14T13:23:31;1.40;;;0.90;;
6017;SDS011;3037;51.068;13.780;2023-03-14T13:25:59;0.60;;;0.60;;
6017;SDS011;3037;51.068;13.780;2023-03-14T13:28:26;1.33;;;0.63;;
6017;SDS011;3037;51.068;13.780;2023-03-14T13:30:59;0.80;;;0.80;;
6017;SDS011;3037;51.068;13.780;2023-03-14T13:33:26;0.80;;;0.80;;
6017;SDS011;3037;51.068;13.780;2023-03-14T13:35:56;2.00;;;0.63;;
6017;SDS011;3037;51.068;13.780;2023-03-14T13:38:24;1.17;;;0.70;;
6017;SDS011;3037;51.068;13.780;2023-03-14T13:40:53;2.93;;;0.70;;
6017;SDS011;3037;51.068;13.780;2023-03-14T13:43:25;0.40;;;0.40;;
6017;SDS011;3037;51.068;13.780;2023-03-14T13:46:00;2.87;;;0.80;;
6017;SDS011;3037;51.068;13.780;2023-03-14T13:48:28;1.43;;;0.67;;
6017;SDS011;3037;51.068;13.780;2023-03-14T13:53:24;1.57;;;0.80;;
6017;SDS011;3037;51.068;13.780;2023-03-14T13:55:50;1.27;;;0.57;;
6017;SDS011;3037;51.068;13.780;2023-03-14T13:58:24;0.70;;;0.70;;
6017;SDS011;3037;51.068;13.780;2023-03-14T14:00:58;0.70;;;0.70;;
6017;SDS011;3037;51.068;13.780;2023-03-14T14:03:27;2.00;;;0.57;;
6017;SDS011;3037;51.068;13.780;2023-03-14T14:05:56;2.83;;;0.57;;
6017;SDS011;3037;51.068;13.780;2023-03-14T14:08:23;0.70;;;0.70;;
6017;SDS011;3037;51.068;13.780;2023-03-14T14:10:50;0.50;;;0.50;;
6017;SDS011;3037;51.068;13.780;2023-03-14T14:13:21;0.80;;;0.60;;
6017;SDS011;3037;51.068;13.780;2023-03-14T14:15:49;2.07;;;0.40;;
6017;SDS011;3037;51.068;13.780;2023-03-14T14:18:18;0.70;;;0.70;;
6017;SDS011;3037;51.068;13.780;2023-03-14T14:20:48;0.67;;;0.67;;
6017;SDS011;3037;51.068;13.780;2023-03-14T14:23:16;1.57;;;0.70;;
6017;SDS011;3037;51.068;13.780;2023-03-14T14:25:50;9.87;;;0.80;;
6017;SDS011;3037;51.068;13.780;2023-03-14T14:28:22;0.70;;;0.70;;
6017;SDS011;3037;51.068;13.780;2023-03-14T14:31:06;0.60;;;0.60;;
6017;SDS011;3037;51.068;13.780;2023-03-14T14:33:55;0.70;;;0.70;;
6017;SDS011;3037;51.068;13.780;2023-03-14T14:39:11;0.60;;;0.60;;
6017;SDS011;3037;51.068;13.780;2023-03-14T14:41:39;0.80;;;0.80;;
6017;SDS011;3037;51.068;13.780;2023-03-14T14:44:05;0.60;;;0.60;;
6017;SDS011;3037;51.068;13.780;2023-03-14T14:46:32;0.90;;;0.70;;
6017;SDS011;3037;51.068;13.780;2023-03-14T14:49:09;0.60;;;0.60;;
6017;SDS011;3037;51.068;13.780;2023-03-14T14:51:47;0.90;;;0.63;;
6017;SDS011;3037;51.068;13.780;2023-03-14T14:54:18;7.40;;;0.60;;
6017;SDS011;3037;51.068;13.780;2023-03-14T14:56:46;0.50;;;0.50;;
6017;SDS011;3037;51.068;13.780;2023-03-14T14:59:26;0.60;;;0.60;;
6017;SDS011;3037;51.068;13.780;2023-03-14T15:01:58;1.20;;;0.60;;
6017;SDS011;3037;51.068;13.780;2023-03-14T15:04:25;0.80;;;0.80;;
6017;SDS011;3037;51.068;13.780;2023-03-14T15:06:51;1.23;;;0.60;;
6017;SDS011;3037;51.068;13.780;2023-03-14T15:09:17;0.77;;;0.40;;
6017;SDS011;3037;51.068;13.780;2023-03-14T15:11:44;0.60;;;0.60;;
6017;SDS011;3037;51.068;13.780;2023-03-14T15:14:11;0.70;;;0.70;;
6017;SDS011;3037;51.068;13.780;2023-03-14T15:16:36;1.17;;;0.70;;
6017;SDS011;3037;51.068;13.780;2023-03-14T15:19:08;15.47;;;0.80;;
6017;SDS011;3037;51.068;13.780;2023-03-14T15:21:37;0.70;;;0.70;;
6017;SDS011;3037;51.068;13.780;2023-03-14T15:24:03;1.23;;;0.90;;
6017;SDS011;3037;51.068;13.780;2023-03-14T15:26:30;0.77;;;0.70;;
6017;SDS011;3037;51.068;13.780;2023-03-14T15:28:55;0.60;;;0.50;;
6017;SDS011;3037;51.068;13.780;2023-03-14T15:31:21;0.70;;;0.60;;
6017;SDS011;3037;51.068;13.780;2023-03-14T15:33:47;0.93;;;0.50;;
6017;SDS011;3037;51.068;13.780;2023-03-14T15:36:19;1.00;;;0.70;;
6017;SDS011;3037;51.068;13.780;2023-03-14T15:38:48;2.40;;;0.80;;
6017;SDS011;3037;51.068;13.780;2023-03-14T15:41:15;0.80;;;0.80;;
6017;SDS011;3037;51.068;13.780;2023-03-14T15:43:40;0.57;;;0.53;;
6017;SDS011;3037;51.068;13.780;2023-03-14T15:46:08;1.20;;;0.80;;
6017;SDS011;3037;51.068;13.780;2023-03-14T15:48:35;0.80;;;0.50;;
6017;SDS011;3037;51.068;13.780;2023-03-14T15:51:00;0.50;;;0.50;;
6017;SDS011;3037;51.068;13.780;2023-03-14T15:53:26;0.70;;;0.70;;
6017;SDS011;3037;51.068;13.780;2023-03-14T15:55:51;0.80;;;0.80;;
6017;SDS011;3037;51.068;13.780;2023-03-14T15:58:17;0.70;;;0.70;;
6017;SDS011;3037;51.068;13.780;2023-03-14T16:00:44;1.17;;;0.70;;
6017;SDS011;3037;51.068;13.780;2023-03-14T16:03:09;0.50;;;0.50;;